Time;durP1;ratioP1;P1;durP2;ratioP2;P2;SDS_P1;SDS_P2;PMS_P1;PMS_P2;Temp;Humidity;BMP_temperature;BMP_pressure;BME280_temperature;BME280_humidity;BME280_pressure;Samples;Min_cycle;Max_cycle;Signal;HPM_P1;HPM_P2
2021/12/16 00:09:25;;;;;;;11.93;8.57;;;9.00;73.80;;;;;;5004277;28;20101;-76
2021/12/16 00:35:59;;;;;;;10.80;8.32;;;9.10;73.80;;;;;;5013858;28;20038;-79
2021/12/16 00:38:24;;;;;;;10.68;8.45;;;9.20;73.70;;;;;;4979908;28;20454;-80
2021/12/16 00:40:50;;;;;;;11.32;8.70;;;9.10;73.50;;;;;;5005602;28;20034;-80
2021/12/16 00:43:28;;;;;;;12.40;9.15;;;8.90;73.90;;;;;;5006608;28;20061;-79
2021/12/16 00:49:31;;;;;;;8.75;7.50;;;8.80;74.20;;;;;;4996505;28;20046;-78
2021/12/16 00:54:11;;;;;;;10.68;8.70;;;8.80;74.30;;;;;;5014280;28;20053;-78
2021/12/16 00:56:38;;;;;;;10.07;8.18;;;8.90;74.20;;;;;;4998272;28;20034;-79
2021/12/16 00:59:07;;;;;;;12.05;8.98;;;8.90;74.10;;;;;;4999693;28;20125;-79
2021/12/16 01:07:51;;;;;;;8.90;7.70;;;9.10;73.90;;;;;;4974858;28;20035;-78
2021/12/16 01:47:45;;;;;;;16.30;11.63;;;8.60;74.60;;;;;;5004676;28;20072;-78
2021/12/16 01:50:23;;;;;;;9.65;7.97;;;8.40;75.20;;;;;;4999294;28;20117;-78
2021/12/16 01:55:27;;;;;;;11.25;8.73;;;8.40;75.40;;;;;;4993749;28;21110;-78
2021/12/16 01:57:58;;;;;;;10.88;7.85;;;8.50;75.80;;;;;;5004553;28;20038;-78
2021/12/16 02:00:53;;;;;;;17.13;9.15;;;8.50;75.20;;;;;;5011591;28;20076;-78
2021/12/16 02:03:26;;;;;;;11.15;8.55;;;8.60;75.00;;;;;;5002882;28;20026;-78
2021/12/16 02:08:20;;;;;;;11.98;8.95;;;8.70;74.40;;;;;;5002884;28;20167;-79
2021/12/16 02:10:58;;;;;;;11.10;8.50;;;8.80;74.40;;;;;;5000209;28;20061;-79
2021/12/16 02:27:27;;;;;;;15.23;10.57;;;8.40;74.80;;;;;;5008272;28;20075;-80
2021/12/16 02:37:30;;;;;;;13.25;9.32;;;8.40;74.60;;;;;;4999759;28;20422;-79
2021/12/16 02:39:56;;;;;;;12.13;9.55;;;8.40;74.80;;;;;;4999734;28;20061;-79
2021/12/16 02:42:34;;;;;;;12.32;9.30;;;8.20;75.00;;;;;;4993255;28;20509;-80
2021/12/16 02:50:23;;;;;;;12.07;9.05;;;8.20;75.30;;;;;;4994037;28;20042;-79
2021/12/16 02:52:50;;;;;;;13.30;9.77;;;8.20;75.20;;;;;;4993069;28;20556;-79
2021/12/16 02:55:18;;;;;;;11.32;9.32;;;8.20;75.10;;;;;;4984190;28;20045;-79
2021/12/16 02:57:59;;;;;;;12.20;9.88;;;8.30;75.10;;;;;;5000145;28;20050;-79
2021/12/16 03:00:24;;;;;;;;;;;8.30;75.00;;;;;;5008024;28;20056;-79
2021/12/16 03:02:51;;;;;;;11.77;8.82;;;8.30;74.80;;;;;;5001942;28;20338;-79
2021/12/16 03:05:19;;;;;;;11.18;8.95;;;8.30;74.70;;;;;;4981886;28;20068;-79
2021/12/16 03:07:46;;;;;;;12.00;9.63;;;8.40;74.60;;;;;;5000305;28;20031;-79
2021/12/16 03:15:27;;;;;;;12.35;10.07;;;8.30;74.80;;;;;;5006694;28;20042;-79
2021/12/16 03:18:01;;;;;;;11.30;8.20;;;8.10;74.80;;;;;;4995372;28;20026;-79
2021/12/16 03:26:38;;;;;;;12.57;9.43;;;7.90;75.60;;;;;;5003968;28;20042;-78
2021/12/16 03:31:26;;;;;;;12.88;9.40;;;8.10;75.30;;;;;;5006327;28;20068;-78
2021/12/16 03:37:11;;;;;;;11.18;8.88;;;8.30;75.30;;;;;;5014326;28;20120;-77
2021/12/16 03:39:36;;;;;;;12.55;9.60;;;8.30;74.60;;;;;;5003250;28;20048;-78
2021/12/16 03:42:02;;;;;;;11.10;9.10;;;8.20;74.40;;;;;;5008295;28;20026;-78
2021/12/16 03:44:38;;;;;;;11.02;9.10;;;8.20;74.50;;;;;;4981471;28;20067;-77
2021/12/16 03:47:04;;;;;;;11.55;9.20;;;8.20;74.50;;;;;;5002273;28;20044;-77
2021/12/16 03:49:30;;;;;;;11.13;8.68;;;8.20;74.50;;;;;;5001111;28;20038;-77
2021/12/16 03:52:06;;;;;;;11.43;9.23;;;8.20;74.50;;;;;;4994716;28;20101;-78
2021/12/16 03:54:41;;;;;;;10.13;8.88;;;8.20;74.60;;;;;;5010722;28;20038;-77
2021/12/16 03:57:10;;;;;;;8.93;8.00;;;8.20;74.70;;;;;;4987411;28;20068;-78
2021/12/16 03:59:38;;;;;;;10.25;8.40;;;8.20;74.60;;;;;;5006022;28;20521;-78
2021/12/16 04:02:08;;;;;;;11.43;8.73;;;8.10;75.00;;;;;;4995346;28;20053;-78
2021/12/16 04:04:36;;;;;;;12.93;10.50;;;7.90;75.30;;;;;;5003344;28;20104;-78
2021/12/16 04:07:03;;;;;;;11.13;9.02;;;7.70;76.10;;;;;;5009857;28;20030;-79
2021/12/16 04:09:31;;;;;;;11.38;9.05;;;7.50;76.90;;;;;;5014299;28;20084;-79
2021/12/16 04:12:07;;;;;;;10.25;8.40;;;7.60;76.60;;;;;;5009914;28;20034;-79
2021/12/16 04:14:33;;;;;;;11.05;8.40;;;7.60;76.60;;;;;;5014079;28;20438;-78
2021/12/16 04:17:02;;;;;;;11.93;9.00;;;7.60;76.30;;;;;;4978195;28;20176;-80
2021/12/16 04:19:31;;;;;;;13.75;10.32;;;7.70;76.20;;;;;;5003777;28;20041;-79
2021/12/16 04:22:01;;;;;;;12.63;9.43;;;7.70;76.00;;;;;;5012624;28;20026;-78
2021/12/16 04:24:28;;;;;;;13.43;10.77;;;7.70;75.90;;;;;;5007015;28;20413;-79
2021/12/16 04:26:56;;;;;;;10.80;9.68;;;7.80;75.60;;;;;;4995751;28;20379;-79
2021/12/16 04:29:24;;;;;;;13.13;9.93;;;7.80;75.40;;;;;;5000244;28;20069;-79
2021/12/16 04:31:52;;;;;;;11.80;9.43;;;7.90;75.30;;;;;;5011090;28;20034;-78
2021/12/16 04:34:18;;;;;;;12.15;9.48;;;7.90;75.00;;;;;;5003348;28;20038;-78
2021/12/16 04:36:43;;;;;;;12.35;10.10;;;7.90;74.60;;;;;;4995253;28;20042;-78
2021/12/16 04:39:15;;;;;;;11.32;8.95;;;7.90;74.60;;;;;;5010326;28;20411;-77
2021/12/16 04:41:42;;;;;;;10.65;8.82;;;7.90;74.60;;;;;;4993491;28;20034;-80
2021/12/16 04:44:12;;;;;;;11.95;9.57;;;7.80;74.40;;;;;;4999893;28;20109;-79
2021/12/16 04:46:38;;;;;;;11.40;9.70;;;7.90;74.40;;;;;;4976257;28;20050;-79
2021/12/16 04:49:06;;;;;;;14.70;10.02;;;7.80;74.30;;;;;;5003075;28;20127;-78
2021/12/16 04:51:37;;;;;;;12.50;10.43;;;7.80;74.20;;;;;;4999562;28;20047;-80
2021/12/16 04:54:05;;;;;;;14.65;9.68;;;7.80;74.30;;;;;;5004656;28;20069;-78
2021/12/16 04:56:32;;;;;;;11.65;9.57;;;7.70;74.30;;;;;;4998441;28;20054;-79
2021/12/16 04:59:17;;;;;;;12.63;9.30;;;7.60;74.50;;;;;;4993712;28;20058;-79
2021/12/16 05:01:48;;;;;;;12.20;9.63;;;7.60;74.70;;;;;;4986949;28;20045;-78
2021/12/16 05:04:14;;;;;;;11.93;9.50;;;7.50;75.00;;;;;;4984430;28;20042;-77
2021/12/16 05:06:40;;;;;;;11.73;8.45;;;7.50;75.10;;;;;;4999503;28;20042;-78
2021/12/16 05:09:08;;;;;;;12.20;9.00;;;7.50;75.20;;;;;;4999104;28;20081;-78
2021/12/16 05:11:35;;;;;;;11.75;9.23;;;7.50;75.20;;;;;;4995194;28;20398;-77
2021/12/16 05:14:05;;;;;;;13.57;9.75;;;7.50;75.30;;;;;;4995600;28;20117;-79
2021/12/16 05:16:31;;;;;;;12.30;9.60;;;7.60;75.40;;;;;;5001579;28;20038;-79
2021/12/16 05:18:56;;;;;;;12.68;9.43;;;7.60;75.30;;;;;;5003389;28;20510;-79
2021/12/16 05:24:26;;;;;;;11.55;9.02;;;7.70;75.20;;;;;;4997336;28;20084;-78
2021/12/16 05:27:06;;;;;;;11.13;8.68;;;7.70;75.10;;;;;;5009168;28;20104;-79
2021/12/16 05:29:32;;;;;;;10.63;8.88;;;7.70;75.00;;;;;;5011649;28;20034;-79
2021/12/16 05:31:58;;;;;;;12.45;8.90;;;7.70;74.90;;;;;;4991070;28;20432;-79
2021/12/16 05:34:25;;;;;;;12.45;9.40;;;7.70;75.10;;;;;;5002731;28;20374;-79
2021/12/16 05:36:51;;;;;;;10.05;8.77;;;7.60;75.90;;;;;;4993733;28;20152;-79
2021/12/16 05:39:18;;;;;;;12.18;9.88;;;7.60;75.50;;;;;;5010366;28;20042;-79
2021/12/16 05:41:44;;;;;;;13.80;10.38;;;7.50;75.70;;;;;;5004496;28;20053;-78
2021/12/16 05:44:10;;;;;;;10.27;8.52;;;7.30;76.10;;;;;;4999056;28;20046;-79
2021/12/16 05:46:37;;;;;;;13.85;9.25;;;7.30;76.30;;;;;;4991526;28;20405;-78
2021/12/16 05:49:07;;;;;;;14.38;10.63;;;7.20;76.10;;;;;;5011104;28;20502;-79
2021/12/16 05:51:35;;;;;;;14.05;9.73;;;7.10;76.40;;;;;;4981975;28;20390;-78
2021/12/16 05:54:03;;;;;;;13.35;10.00;;;7.00;76.50;;;;;;4993727;28;20419;-77
2021/12/16 05:56:29;;;;;;;12.38;9.20;;;6.90;76.70;;;;;;5011799;28;20064;-77
2021/12/16 05:58:56;;;;;;;12.90;9.73;;;7.00;76.40;;;;;;5004208;28;20140;-77
2021/12/16 06:01:28;;;;;;;12.43;9.80;;;7.10;76.40;;;;;;4998958;28;20073;-77
2021/12/16 06:03:54;;;;;;;13.00;9.60;;;7.20;76.30;;;;;;5000915;28;20053;-76
2021/12/16 06:06:21;;;;;;;12.68;9.77;;;7.20;75.90;;;;;;5008082;28;20458;-76
2021/12/16 06:08:48;;;;;;;11.75;9.20;;;7.20;75.70;;;;;;5000816;28;20046;-76
2021/12/16 06:11:19;;;;;;;12.30;9.93;;;7.30;75.60;;;;;;4990907;28;20561;-76
2021/12/16 06:27:30;;;;;;;10.45;8.60;;;7.20;75.80;;;;;;4998544;28;20100;-76
2021/12/16 06:29:56;;;;;;;12.60;9.70;;;7.20;75.90;;;;;;5004794;28;20034;-77
2021/12/16 06:32:22;;;;;;;13.10;9.45;;;7.30;75.70;;;;;;4984477;28;20713;-77
2021/12/16 06:34:49;;;;;;;12.23;10.10;;;7.20;75.60;;;;;;5001774;28;20080;-77
2021/12/16 06:37:14;;;;;;;11.65;9.40;;;7.20;75.80;;;;;;5007481;28;20045;-77
2021/12/16 06:39:41;;;;;;;11.63;8.98;;;7.20;76.00;;;;;;4988119;28;20042;-77
2021/12/16 06:42:09;;;;;;;13.77;9.15;;;7.30;75.80;;;;;;4980461;28;20037;-81
2021/12/16 06:44:42;;;;;;;12.38;9.43;;;7.20;75.70;;;;;;5009949;28;20034;-80
2021/12/16 06:47:13;;;;;;;12.02;9.23;;;7.30;75.80;;;;;;5002431;28;20034;-82
2021/12/16 06:49:41;;;;;;;12.02;9.10;;;7.30;75.70;;;;;;5001542;28;20038;-82
2021/12/16 06:52:11;;;;;;;11.13;8.45;;;7.40;75.60;;;;;;4996067;28;20038;-82
2021/12/16 06:55:30;;;;;;;11.77;9.43;;;7.40;75.50;;;;;;5008736;28;20041;-82
2021/12/16 06:57:52;;;;;;;;;;;7.40;75.40;;;;;;4991552;28;20277;-82
2021/12/16 07:00:37;;;;;;;9.65;7.88;;;7.40;75.50;;;;;;5001338;28;20036;-82
2021/12/16 07:03:06;;;;;;;10.48;7.57;;;7.30;75.80;;;;;;5000132;28;20116;-81
2021/12/16 07:05:39;;;;;;;8.98;7.88;;;7.20;76.10;;;;;;5012744;28;20053;-82
2021/12/16 07:08:09;;;;;;;11.18;7.95;;;7.20;78.50;;;;;;5005617;28;20113;-83
2021/12/16 07:10:36;;;;;;;11.70;8.70;;;7.30;77.70;;;;;;5017105;28;20050;-83
2021/12/16 07:13:07;;;;;;;10.13;8.10;;;7.50;77.20;;;;;;5015142;28;20096;-82
2021/12/16 07:15:36;;;;;;;11.77;9.07;;;7.50;76.50;;;;;;5003612;28;20054;-83
2021/12/16 07:18:03;;;;;;;12.10;9.35;;;7.60;76.20;;;;;;5016560;28;20030;-83
2021/12/16 07:20:31;;;;;;;12.68;8.77;;;7.70;75.80;;;;;;4987034;28;20043;-83
2021/12/16 07:22:59;;;;;;;13.63;9.50;;;7.70;75.50;;;;;;4995636;28;20049;-83
2021/12/16 07:25:25;;;;;;;11.80;8.38;;;7.70;75.40;;;;;;4997337;28;20069;-84
2021/12/16 07:27:51;;;;;;;10.57;8.85;;;7.70;75.40;;;;;;4998280;28;20026;-83
2021/12/16 07:30:18;;;;;;;11.77;8.57;;;7.70;75.30;;;;;;5010758;28;20088;-83
2021/12/16 07:32:44;;;;;;;9.13;7.70;;;7.70;75.40;;;;;;5012264;28;20107;-83
2021/12/16 07:35:15;;;;;;;10.48;8.55;;;7.80;75.50;;;;;;5004995;28;20034;-83
2021/12/16 07:37:41;;;;;;;11.75;9.77;;;7.80;75.30;;;;;;5002093;28;20039;-80
2021/12/16 07:40:10;;;;;;;12.05;9.65;;;7.80;75.20;;;;;;5010652;28;20091;-80
2021/12/16 07:45:32;;;;;;;11.80;9.55;;;7.90;75.30;;;;;;5010327;28;20065;-79
2021/12/16 07:48:02;;;;;;;13.02;9.27;;;7.90;75.40;;;;;;5015297;28;20045;-79
2021/12/16 07:50:28;;;;;;;14.65;9.85;;;7.90;75.40;;;;;;5015974;28;20077;-79
2021/12/16 07:52:54;;;;;;;13.25;9.77;;;7.90;75.50;;;;;;5014357;28;20066;-79
2021/12/16 07:55:21;;;;;;;12.05;9.93;;;7.90;75.60;;;;;;5010060;28;20470;-79
2021/12/16 07:57:47;;;;;;;12.82;10.23;;;7.90;75.70;;;;;;5007367;28;20168;-78
2021/12/16 08:00:21;;;;;;;13.00;9.63;;;8.00;75.90;;;;;;5017951;28;20125;-78
2021/12/16 08:02:47;;;;;;;11.20;9.20;;;7.90;75.90;;;;;;5007581;28;20098;-78
2021/12/16 08:05:14;;;;;;;13.07;9.30;;;7.90;75.90;;;;;;5020095;28;20042;-78
2021/12/16 08:07:40;;;;;;;14.88;9.75;;;7.90;76.00;;;;;;4997735;28;20066;-78
2021/12/16 08:10:09;;;;;;;11.70;9.15;;;8.00;76.00;;;;;;5003790;28;20053;-79
2021/12/16 08:12:35;;;;;;;15.30;9.93;;;8.00;75.90;;;;;;5003213;28;20050;-81
2021/12/16 08:15:02;;;;;;;12.73;9.93;;;8.00;75.80;;;;;;5010835;28;20030;-80
2021/12/16 08:17:28;;;;;;;10.90;8.95;;;8.00;75.80;;;;;;5008021;28;20038;-80
2021/12/16 08:19:54;;;;;;;11.43;9.43;;;8.00;75.40;;;;;;4987042;28;20538;-80
2021/12/16 08:22:19;;;;;;;14.02;10.00;;;8.00;75.50;;;;;;5009625;28;20129;-80
2021/12/16 08:24:45;;;;;;;11.98;9.90;;;8.00;75.50;;;;;;5013703;28;20121;-79
2021/12/16 08:27:14;;;;;;;13.00;9.77;;;8.00;75.40;;;;;;5013570;28;20085;-80
2021/12/16 08:29:39;;;;;;;11.65;8.93;;;8.10;75.30;;;;;;5011640;28;20117;-79
2021/12/16 08:32:06;;;;;;;12.10;10.15;;;8.10;75.20;;;;;;5003983;28;20134;-78
2021/12/16 08:34:34;;;;;;;13.38;10.40;;;8.10;74.80;;;;;;5002237;28;20045;-79
2021/12/16 08:37:02;;;;;;;15.90;11.55;;;8.10;75.10;;;;;;5007745;28;20109;-79
2021/12/16 08:39:28;;;;;;;13.20;10.32;;;8.20;74.80;;;;;;5004968;28;20039;-79
2021/12/16 08:41:56;;;;;;;15.45;11.25;;;8.30;74.60;;;;;;4999451;28;20049;-79
2021/12/16 08:44:23;;;;;;;13.65;10.48;;;8.40;73.80;;;;;;4998083;28;20041;-79
2021/12/16 08:47:33;;;;;;;12.30;9.30;;;8.40;73.70;;;;;;5054305;23;20042;-81
2021/12/16 08:49:59;;;;;;;12.13;10.25;;;8.40;74.00;;;;;;4968328;28;20043;-79
2021/12/16 08:52:25;;;;;;;13.98;10.82;;;8.50;74.20;;;;;;4961907;28;20542;-81
2021/12/16 08:54:51;;;;;;;13.27;11.13;;;8.60;74.20;;;;;;4971256;28;20089;-81
2021/12/16 08:57:17;;;;;;;14.43;11.68;;;8.60;74.00;;;;;;4974227;28;20042;-81
2021/12/16 08:59:44;;;;;;;13.20;10.82;;;8.70;73.10;;;;;;4966547;28;20380;-82
2021/12/16 09:02:10;;;;;;;22.58;14.32;;;8.70;73.50;;;;;;4959123;28;20036;-81
2021/12/16 09:04:38;;;;;;;14.45;11.20;;;8.60;72.50;;;;;;4963518;28;20066;-82
2021/12/16 09:07:07;;;;;;;14.18;10.88;;;8.60;73.20;;;;;;4973474;28;20047;-82
2021/12/16 09:09:35;;;;;;;15.57;12.23;;;8.60;73.50;;;;;;4974041;28;20046;-81
2021/12/16 09:12:10;;;;;;;15.02;11.52;;;8.70;73.60;;;;;;4975828;28;20035;-82
2021/12/16 09:14:37;;;;;;;14.35;11.52;;;8.80;73.70;;;;;;4975225;28;20039;-83
2021/12/16 09:17:09;;;;;;;18.17;12.75;;;9.00;73.80;;;;;;4972682;28;20057;-81
2021/12/16 09:19:39;;;;;;;16.23;12.00;;;9.10;73.60;;;;;;4962398;28;20037;-80
2021/12/16 09:22:06;;;;;;;15.38;12.38;;;9.10;73.50;;;;;;4969729;28;21738;-80
2021/12/16 09:24:33;;;;;;;14.98;12.77;;;9.20;73.20;;;;;;4973322;28;20109;-81
2021/12/16 09:26:58;;;;;;;18.48;13.38;;;9.30;73.30;;;;;;4968380;28;20034;-81
2021/12/16 09:29:24;;;;;;;16.27;11.68;;;9.30;71.90;;;;;;4969861;28;20396;-80
2021/12/16 09:31:51;;;;;;;12.13;10.07;;;9.30;72.00;;;;;;4969384;28;20039;-80
2021/12/16 09:34:16;;;;;;;13.30;11.10;;;9.20;72.10;;;;;;4968119;28;20039;-80
2021/12/16 09:36:45;;;;;;;14.68;11.75;;;9.30;72.80;;;;;;4972666;28;20037;-80
2021/12/16 09:39:16;;;;;;;13.57;10.88;;;9.40;72.20;;;;;;4968695;28;20073;-80
2021/12/16 09:41:47;;;;;;;12.98;10.18;;;9.50;72.10;;;;;;4973358;28;20030;-80
2021/12/16 09:44:14;;;;;;;14.10;10.75;;;9.60;72.20;;;;;;4970718;28;20027;-79
2021/12/16 09:46:44;;;;;;;13.02;9.57;;;9.70;71.50;;;;;;4969349;28;20078;-82
2021/12/16 09:49:10;;;;;;;15.95;11.55;;;9.80;71.20;;;;;;4975358;28;20125;-81
2021/12/16 09:51:41;;;;;;;12.32;9.98;;;9.90;70.10;;;;;;4959171;28;20479;-82
2021/12/16 09:54:11;;;;;;;13.18;11.05;;;9.80;70.00;;;;;;4962505;28;20039;-80
2021/12/16 09:56:39;;;;;;;11.05;8.52;;;9.80;70.10;;;;;;4963674;28;20406;-81
2021/12/16 09:59:07;;;;;;;9.52;8.52;;;9.90;70.60;;;;;;4968482;28;20035;-82
2021/12/16 10:01:33;;;;;;;11.05;8.85;;;10.00;70.70;;;;;;4964080;28;20043;-81
2021/12/16 10:04:03;;;;;;;9.93;8.40;;;10.10;70.70;;;;;;4965412;28;20117;-81
2021/12/16 10:06:35;;;;;;;12.55;8.07;;;10.30;70.10;;;;;;4965843;28;20077;-82
2021/12/16 10:09:04;;;;;;;11.68;9.23;;;10.40;70.10;;;;;;4965787;28;20045;-81
2021/12/16 10:11:31;;;;;;;9.30;8.30;;;10.50;68.90;;;;;;4959518;28;20431;-81
2021/12/16 10:19:10;;;;;;;7.68;6.28;;;10.50;68.90;;;;;;4964570;28;20074;-82
2021/12/16 10:21:36;;;;;;;12.50;9.10;;;10.80;69.20;;;;;;4964788;28;20035;-81
2021/12/16 10:24:03;;;;;;;9.77;7.07;;;10.90;67.90;;;;;;4963192;28;20479;-82
2021/12/16 10:26:28;;;;;;;8.60;7.13;;;11.10;68.10;;;;;;4963081;28;20054;-80
2021/12/16 10:28:57;;;;;;;8.20;6.55;;;11.30;68.20;;;;;;4965391;28;20043;-81
2021/12/16 10:31:30;;;;;;;8.43;6.53;;;11.60;67.10;;;;;;4972488;28;20412;-81
2021/12/16 10:34:01;;;;;;;8.07;7.18;;;11.80;67.80;;;;;;4960243;28;20055;-81
2021/12/16 10:36:37;;;;;;;10.35;7.78;;;12.10;67.40;;;;;;4969574;28;20145;-80
2021/12/16 10:39:23;;;;;;;11.40;8.48;;;12.40;67.20;;;;;;4969530;28;20224;-81
2021/12/16 10:42:00;;;;;;;9.80;7.97;;;12.60;66.80;;;;;;4961194;28;20388;-81
2021/12/16 10:44:36;;;;;;;11.23;7.47;;;12.90;66.40;;;;;;4974800;28;20450;-81
2021/12/16 10:47:12;;;;;;;8.55;6.28;;;13.00;61.00;;;;;;4976307;28;20490;-81
2021/12/16 10:49:49;;;;;;;7.72;6.03;;;13.10;64.20;;;;;;4990610;28;20129;-81
2021/12/16 10:52:26;;;;;;;8.68;6.95;;;13.30;64.00;;;;;;4979752;28;20413;-83
2021/12/16 10:54:54;;;;;;;8.55;6.53;;;13.50;63.30;;;;;;4995051;28;20038;-82
2021/12/16 10:57:25;;;;;;;9.10;6.15;;;13.60;63.20;;;;;;4990744;28;20109;-82
2021/12/16 10:59:54;;;;;;;6.85;5.68;;;13.70;62.30;;;;;;4985018;28;20054;-81
2021/12/16 11:02:27;;;;;;;7.63;6.32;;;13.80;62.20;;;;;;4993703;28;20081;-82
2021/12/16 11:05:01;;;;;;;7.13;5.55;;;13.90;61.30;;;;;;4980573;28;20034;-82
2021/12/16 11:07:39;;;;;;;7.95;6.10;;;13.90;61.20;;;;;;4983741;28;20046;-81
2021/12/16 11:10:11;;;;;;;6.68;5.50;;;14.00;60.90;;;;;;4978997;28;20046;-81
2021/12/16 11:12:53;;;;;;;5.78;5.18;;;14.20;60.30;;;;;;4991631;28;20034;-81
2021/12/16 11:15:31;;;;;;;7.35;5.43;;;14.30;59.70;;;;;;4978957;28;20101;-81
2021/12/16 11:18:10;;;;;;;7.10;5.97;;;14.40;59.00;;;;;;4996363;28;20490;-81
2021/12/16 11:21:07;;;;;;;7.00;5.70;;;14.50;59.40;;;;;;4996199;28;20049;-81
2021/12/16 11:23:40;;;;;;;9.25;6.00;;;14.70;59.30;;;;;;4973596;28;20395;-81
2021/12/16 11:26:10;;;;;;;7.75;5.63;;;14.90;58.80;;;;;;4977959;28;20121;-80
2021/12/16 11:28:44;;;;;;;6.60;5.53;;;15.10;58.60;;;;;;4993289;28;20117;-82
2021/12/16 11:31:16;;;;;;;6.03;4.68;;;15.30;56.40;;;;;;4985043;28;20089;-82
2021/12/16 11:33:49;;;;;;;6.10;5.47;;;15.40;57.50;;;;;;4978675;28;20129;-81
2021/12/16 11:36:18;;;;;;;8.48;5.78;;;15.60;57.10;;;;;;4995507;28;20428;-80
2021/12/16 11:38:49;;;;;;;7.53;5.68;;;16.00;56.40;;;;;;4993996;28;20045;-81
2021/12/16 11:41:26;;;;;;;6.78;6.07;;;16.50;53.10;;;;;;4985997;28;20419;-81
2021/12/16 11:44:00;;;;;;;7.05;6.35;;;17.10;53.80;;;;;;4995874;28;20038;-81
2021/12/16 11:46:38;;;;;;;7.85;5.82;;;18.00;51.80;;;;;;4993223;28;20042;-81
2021/12/16 11:49:11;;;;;;;7.13;6.32;;;18.80;48.80;;;;;;4988232;28;20109;-81
2021/12/16 11:51:48;;;;;;;10.20;6.35;;;19.70;46.60;;;;;;4974936;28;20049;-81
2021/12/16 11:54:32;;;;;;;9.32;7.70;;;20.50;44.90;;;;;;4971543;28;20491;-82
2021/12/16 11:57:14;;;;;;;6.97;5.70;;;21.20;43.00;;;;;;4959676;28;20061;-81
2021/12/16 11:59:47;;;;;;;7.30;6.55;;;21.10;41.90;;;;;;4993642;28;20060;-81
2021/12/16 12:02:33;;;;;;;6.78;6.03;;;21.40;41.60;;;;;;4990923;28;20077;-81
2021/12/16 12:05:26;;;;;;;9.23;6.40;;;21.30;41.40;;;;;;4983013;28;20039;-81
2021/12/16 12:07:53;;;;;;;12.05;7.03;;;21.60;40.70;;;;;;4988890;28;20066;-81
2021/12/16 12:10:53;;;;;;;6.95;6.25;;;22.00;39.80;;;;;;4983404;28;20035;-81
2021/12/16 12:13:29;;;;;;;6.47;5.78;;;22.30;38.70;;;;;;4971822;28;20483;-80
2021/12/16 12:15:58;;;;;;;7.70;5.97;;;22.60;38.30;;;;;;4983430;28;20057;-81
2021/12/16 12:18:41;;;;;;;5.47;4.93;;;21.80;35.90;;;;;;4970307;28;20106;-81
2021/12/16 12:21:20;;;;;;;6.07;5.22;;;21.00;38.40;;;;;;4973400;28;20166;-81
2021/12/16 12:23:49;;;;;;;8.48;6.75;;;21.00;39.80;;;;;;4982706;28;20077;-81
2021/12/16 12:26:19;;;;;;;9.70;6.50;;;21.30;39.90;;;;;;4983153;28;20039;-81
2021/12/16 12:28:52;;;;;;;7.03;6.03;;;21.60;39.90;;;;;;4981813;28;20070;-82
2021/12/16 12:31:21;;;;;;;8.88;6.72;;;21.80;39.50;;;;;;4983946;28;20043;-81
2021/12/16 12:33:47;;;;;;;7.30;6.53;;;21.80;39.20;;;;;;4985728;28;20505;-81
2021/12/16 12:36:15;;;;;;;7.25;6.55;;;21.70;38.20;;;;;;4984683;28;20502;-81
2021/12/16 12:38:42;;;;;;;7.10;6.38;;;21.40;39.40;;;;;;4985881;28;20130;-81
2021/12/16 12:41:08;;;;;;;8.25;6.70;;;21.40;39.70;;;;;;4985841;28;20030;-81
2021/12/16 12:43:34;;;;;;;6.55;5.95;;;21.30;40.00;;;;;;4981545;28;20046;-81
2021/12/16 12:46:06;;;;;;;6.93;5.40;;;21.20;39.70;;;;;;4973188;28;20038;-81
2021/12/16 12:48:37;;;;;;;5.97;5.38;;;20.80;39.90;;;;;;4986634;28;20064;-81
2021/12/16 12:51:05;;;;;;;6.10;5.50;;;20.50;40.50;;;;;;4987337;28;20137;-81
2021/12/16 12:53:35;;;;;;;6.60;5.63;;;20.40;40.80;;;;;;4982300;28;20041;-81
2021/12/16 12:56:27;;;;;;;6.88;6.10;;;20.50;40.80;;;;;;4989302;28;20046;-81
2021/12/16 12:59:11;;;;;;;5.88;5.28;;;20.70;41.20;;;;;;4988948;28;20489;-81
2021/12/16 13:01:52;;;;;;;6.90;5.85;;;20.70;40.40;;;;;;4986191;28;20037;-81
2021/12/16 13:04:30;;;;;;;7.35;5.10;;;20.80;40.00;;;;;;4993620;28;20069;-80
2021/12/16 13:07:02;;;;;;;6.57;5.95;;;20.90;40.20;;;;;;4993512;28;20065;-83
2021/12/16 13:09:30;;;;;;;6.50;5.63;;;21.00;39.90;;;;;;4994388;28;20038;-81
2021/12/16 13:11:56;;;;;;;7.80;5.88;;;21.00;39.90;;;;;;4990596;28;20027;-80
2021/12/16 13:14:40;;;;;;;8.07;5.75;;;21.00;39.50;;;;;;4990961;28;20070;-81
2021/12/16 13:28:02;;;;;;;8.00;6.32;;;19.70;41.50;;;;;;4988600;28;20038;-81
2021/12/16 13:30:32;;;;;;;7.85;6.28;;;19.20;42.50;;;;;;4978763;28;20035;-81
2021/12/16 13:33:13;;;;;;;8.25;5.80;;;18.80;44.20;;;;;;4995978;28;20073;-80
2021/12/16 13:35:47;;;;;;;6.18;5.57;;;18.30;44.20;;;;;;5003176;28;20037;-82
2021/12/16 13:38:14;;;;;;;7.05;5.97;;;17.70;44.40;;;;;;4993430;28;20031;-81
2021/12/16 13:40:42;;;;;;;6.75;6.05;;;17.30;45.60;;;;;;4993601;28;20193;-82
2021/12/16 13:43:21;;;;;;;5.85;5.22;;;17.00;46.30;;;;;;4993950;28;20078;-82
2021/12/16 13:46:05;;;;;;;8.38;6.05;;;16.70;47.20;;;;;;4988073;28;20046;-82
2021/12/16 14:03:03;;;;;;;7.53;6.78;;;15.50;51.30;;;;;;4991452;28;20038;-80
2021/12/16 14:05:39;;;;;;;8.73;6.30;;;15.10;52.20;;;;;;4972234;28;20503;-81
2021/12/16 14:08:08;;;;;;;8.35;6.72;;;15.00;52.40;;;;;;4986100;28;20030;-81
2021/12/16 14:10:52;;;;;;;6.88;6.20;;;15.00;52.90;;;;;;4981595;28;20038;-81
2021/12/16 14:16:12;;;;;;;7.68;6.78;;;14.90;53.40;;;;;;4991342;28;20042;-84
2021/12/16 14:44:06;;;;;;;;;;;14.30;56.40;;;;;;4985821;28;20486;-80
2021/12/16 14:46:35;;;;;;;10.30;8.55;;;14.30;56.40;;;;;;4975256;28;19921;-80
2021/12/16 14:49:00;;;;;;;9.88;8.45;;;14.30;57.20;;;;;;4992190;28;20055;-80
2021/12/16 14:51:26;;;;;;;11.23;8.52;;;14.10;57.10;;;;;;4986189;28;20038;-80
2021/12/16 14:53:54;;;;;;;13.30;9.23;;;14.20;57.40;;;;;;4989913;28;20045;-80
2021/12/16 14:56:32;;;;;;;11.20;9.13;;;14.10;57.90;;;;;;4986736;28;20047;-80
2021/12/16 14:59:08;;;;;;;10.20;8.60;;;14.10;57.90;;;;;;4983337;28;20453;-80
2021/12/16 15:01:40;;;;;;;12.82;8.57;;;14.00;58.00;;;;;;4982657;28;20037;-80
2021/12/16 15:04:09;;;;;;;9.98;8.40;;;14.00;58.60;;;;;;4981758;28;20046;-80
2021/12/16 15:06:45;;;;;;;10.38;8.88;;;14.00;58.90;;;;;;4991606;28;20494;-79
2021/12/16 15:11:51;;;;;;;10.75;9.35;;;13.90;59.10;;;;;;4992559;28;20038;-80
2021/12/16 15:14:37;;;;;;;11.77;9.15;;;13.80;59.40;;;;;;4986951;28;20372;-81
2021/12/16 15:17:19;;;;;;;10.57;8.55;;;13.80;59.80;;;;;;4991760;28;20030;-80
2021/12/16 15:44:51;;;;;;;10.77;9.55;;;13.30;63.50;;;;;;4986488;28;20053;-79
2021/12/16 15:47:18;;;;;;;13.07;9.38;;;13.20;63.70;;;;;;4986306;28;20027;-80
2021/12/16 15:49:44;;;;;;;13.25;10.35;;;13.10;63.70;;;;;;4985222;28;20352;-80
2021/12/16 15:52:10;;;;;;;12.48;9.70;;;13.10;64.00;;;;;;4982342;28;20057;-80
2021/12/16 15:54:38;;;;;;;14.90;11.30;;;13.10;64.90;;;;;;4982607;28;20089;-80
2021/12/16 15:57:05;;;;;;;16.02;10.50;;;13.10;64.80;;;;;;4991995;28;20094;-80
2021/12/16 15:59:33;;;;;;;12.52;9.98;;;13.10;65.10;;;;;;4983858;28;20539;-80
2021/12/16 16:02:00;;;;;;;11.60;10.35;;;13.00;65.20;;;;;;4966791;28;20042;-81
2021/12/16 16:04:35;;;;;;;13.18;10.40;;;12.90;65.50;;;;;;4982496;28;20047;-81
2021/12/16 16:07:07;;;;;;;13.10;10.43;;;12.90;65.80;;;;;;4968355;28;20450;-81
2021/12/16 16:09:39;;;;;;;12.50;10.65;;;12.80;66.10;;;;;;4983297;28;20038;-81
2021/12/16 16:12:07;;;;;;;13.32;10.50;;;12.80;67.00;;;;;;4987573;28;20046;-81
2021/12/16 16:14:37;;;;;;;14.43;11.52;;;12.70;66.40;;;;;;4987522;28;20101;-81
2021/12/16 16:17:12;;;;;;;13.70;11.98;;;12.60;66.70;;;;;;4962558;28;20114;-80
2021/12/16 16:19:38;;;;;;;16.67;12.00;;;12.60;66.40;;;;;;4987929;28;20038;-80
2021/12/16 16:22:06;;;;;;;14.38;10.80;;;12.50;66.70;;;;;;4979146;28;20049;-80
2021/12/16 16:24:41;;;;;;;16.30;11.68;;;12.50;67.00;;;;;;4985013;28;20097;-80
2021/12/16 16:27:12;;;;;;;14.15;11.07;;;12.40;67.40;;;;;;4985982;28;20038;-80
2021/12/16 16:29:40;;;;;;;15.57;12.27;;;12.40;67.50;;;;;;4986669;28;20065;-80
2021/12/16 16:32:06;;;;;;;14.43;11.38;;;12.40;67.80;;;;;;4986442;28;20038;-81
2021/12/16 16:34:46;;;;;;;15.43;12.38;;;12.30;67.90;;;;;;4999474;28;20113;-81
2021/12/16 16:37:13;;;;;;;18.13;13.17;;;12.30;68.00;;;;;;4974123;28;20050;-80
2021/12/16 16:39:42;;;;;;;22.27;13.80;;;12.30;68.00;;;;;;4989343;28;20035;-83
2021/12/16 16:42:14;;;;;;;16.23;12.95;;;12.30;67.90;;;;;;4974639;28;20494;-81
2021/12/16 16:44:44;;;;;;;19.40;14.07;;;12.30;68.00;;;;;;4989558;28;20105;-80
2021/12/16 16:47:28;;;;;;;17.08;13.43;;;12.20;68.10;;;;;;4991360;28;20522;-80
2021/12/16 16:49:54;;;;;;;21.15;13.43;;;12.20;68.20;;;;;;4987496;28;20384;-80
2021/12/16 16:52:28;;;;;;;18.67;13.57;;;12.10;68.20;;;;;;4975746;28;20141;-80
2021/12/16 16:55:09;;;;;;;15.68;13.45;;;12.10;68.30;;;;;;4994334;28;20403;-80
2021/12/16 16:57:49;;;;;;;18.77;14.25;;;12.10;69.00;;;;;;4991007;28;20039;-80